Frankston Lake, Texas
Current Conditions -  °F | °C
As of 9:35 PM on Friday 19 Dec 2014 (Local Time) from KPSN Reporting Station
Haze Haze  
Wind Chill: 44°   Ceiling: 400
Heat Index: 47°   Visibility: 2.5mi
Dew Point: 47°   Wind: 7mph
Humidity: 100%   Direction: 10°N
Pressure: 30.2"   Gusts: NA
Location:  32.0056°N, 95.5543°W
Report Text: KPSN 200335Z AUTO 01006KT 2 1/2SM BR OVC004 08/08 A3020 RMK AO2 T00860086
Loading
Personal Weather Stations






























Interactive Weather Map New forecast layout! Learn more

10-Day Weather Forecast

Advertisements
Track Severe Weather on mobile